createdAt,value
2018-07-26T00:00:04.337Z,14.00
2018-07-26T00:03:02.804Z,15.17
2018-07-26T00:06:00.635Z,15.27
2018-07-26T00:08:58.911Z,13.47
2018-07-26T00:11:58.519Z,12.83
2018-07-26T00:14:56.529Z,12.33
2018-07-26T00:17:54.901Z,13.13
2018-07-26T00:20:53.440Z,11.93
2018-07-26T00:23:51.786Z,12.10
2018-07-26T00:26:50.236Z,11.93
2018-07-26T00:29:47.977Z,12.77
2018-07-26T00:32:46.312Z,11.63
2018-07-26T00:35:44.628Z,12.20
2018-07-26T00:38:42.621Z,12.27
2018-07-26T00:41:40.696Z,11.77
2018-07-26T00:44:38.723Z,11.73
2018-07-26T00:47:37.785Z,12.63
2018-07-26T00:50:36.052Z,13.30
2018-07-26T00:53:33.888Z,12.43
2018-07-26T00:56:32.378Z,13.33
2018-07-26T00:59:30.256Z,14.07
2018-07-26T01:02:28.439Z,14.50
2018-07-26T01:05:26.513Z,12.50
2018-07-26T01:08:24.440Z,12.10
2018-07-26T01:11:22.782Z,12.73
2018-07-26T01:14:21.303Z,13.40
2018-07-26T01:17:19.413Z,12.73
2018-07-26T01:20:17.508Z,14.37
2018-07-26T01:23:15.777Z,13.70
2018-07-26T01:26:14.332Z,13.87
2018-07-26T01:29:13.213Z,13.43
2018-07-26T01:32:11.400Z,14.10
2018-07-26T01:35:09.761Z,13.70
2018-07-26T01:38:08.030Z,13.07
2018-07-26T01:41:06.567Z,13.70
2018-07-26T01:44:16.936Z,13.83
2018-07-26T01:47:15.082Z,13.70
2018-07-26T01:50:14.290Z,13.70
2018-07-26T01:53:14.558Z,14.87
2018-07-26T01:56:13.879Z,15.17
2018-07-26T01:59:13.268Z,16.90
2018-07-26T02:02:11.472Z,15.87
2018-07-26T02:05:09.270Z,16.90
2018-07-26T02:08:07.561Z,15.57
2018-07-26T02:11:06.528Z,17.33
2018-07-26T02:14:04.668Z,16.67
2018-07-26T02:17:02.842Z,17.90
2018-07-26T02:20:01.222Z,17.80
2018-07-26T02:22:59.567Z,16.97
2018-07-26T02:25:57.656Z,17.87
2018-07-26T02:28:55.893Z,18.13
2018-07-26T02:31:54.164Z,17.87
2018-07-26T02:34:52.365Z,16.73
2018-07-26T02:37:50.813Z,17.77
2018-07-26T02:40:49.232Z,17.73
2018-07-26T02:43:47.453Z,18.07
2018-07-26T02:46:45.488Z,18.20
2018-07-26T02:49:43.732Z,18.07
2018-07-26T02:52:41.821Z,18.17
2018-07-26T02:55:40.844Z,19.20
2018-07-26T02:58:39.055Z,18.43
2018-07-26T03:01:37.323Z,19.77
2018-07-26T03:04:35.483Z,18.77
2018-07-26T03:07:33.989Z,19.80
2018-07-26T03:10:32.049Z,19.83
2018-07-26T03:13:30.114Z,19.77
2018-07-26T03:16:29.148Z,19.70
2018-07-26T03:19:27.238Z,19.53
2018-07-26T03:22:25.312Z,19.20
2018-07-26T03:25:23.372Z,18.67
2018-07-26T03:28:21.721Z,19.40
2018-07-26T03:31:20.104Z,21.13
2018-07-26T03:34:19.480Z,20.43
2018-07-26T03:37:17.630Z,21.97
2018-07-26T03:40:15.576Z,21.60
2018-07-26T03:43:13.672Z,21.53
2018-07-26T03:46:12.605Z,21.67
2018-07-26T03:49:10.496Z,21.73
2018-07-26T03:52:08.592Z,22.60
2018-07-26T03:55:06.933Z,21.80
2018-07-26T03:58:05.476Z,22.50
2018-07-26T04:01:04.081Z,22.80
2018-07-26T04:04:03.284Z,22.57
2018-07-26T04:07:01.320Z,22.87
2018-07-26T04:09:59.468Z,22.60
2018-07-26T04:12:57.724Z,22.93
2018-07-26T04:15:55.998Z,22.03
2018-07-26T04:18:54.180Z,21.73
2018-07-26T04:21:52.224Z,23.43
2018-07-26T04:24:51.318Z,22.87
2018-07-26T04:27:49.451Z,22.77
2018-07-26T04:30:47.648Z,22.70
2018-07-26T04:33:45.686Z,21.07
2018-07-26T04:36:43.832Z,19.83
2018-07-26T04:39:41.448Z,20.47
2018-07-26T04:42:39.762Z,21.10
2018-07-26T04:45:37.820Z,21.43
2018-07-26T04:48:35.991Z,20.87
2018-07-26T04:51:34.331Z,20.63
2018-07-26T04:54:32.328Z,19.40
2018-07-26T04:57:30.638Z,19.47
2018-07-26T05:00:32.077Z,18.00
2018-07-26T05:03:29.968Z,17.90
2018-07-26T05:06:28.261Z,17.87
2018-07-26T05:09:26.513Z,17.47
2018-07-26T05:12:24.769Z,17.20
2018-07-26T05:15:22.612Z,16.73
2018-07-26T05:18:20.703Z,16.57
2018-07-26T05:21:18.956Z,16.73
2018-07-26T05:24:18.104Z,16.53
2018-07-26T05:27:16.592Z,15.93
2018-07-26T05:30:14.888Z,15.17
2018-07-26T05:33:13.014Z,15.67
2018-07-26T05:36:11.313Z,15.90
2018-07-26T05:39:09.637Z,14.90
2018-07-26T05:42:08.249Z,14.33
2018-07-26T05:45:06.400Z,13.70
2018-07-26T05:48:04.587Z,13.83
2018-07-26T05:51:02.657Z,13.38
2018-07-26T05:54:00.824Z,12.77
2018-07-26T05:56:58.790Z,12.90
2018-07-26T05:59:56.944Z,12.63
2018-07-26T06:02:55.050Z,12.90
2018-07-26T06:05:53.104Z,12.73
2018-07-26T06:08:51.433Z,12.33
2018-07-26T06:11:50.993Z,12.97
2018-07-26T06:14:48.934Z,12.80
2018-07-26T06:17:48.096Z,12.20
2018-07-26T06:20:46.497Z,12.03
2018-07-26T06:23:44.695Z,11.83
2018-07-26T06:26:43.025Z,10.97
2018-07-26T06:29:41.380Z,10.80
2018-07-26T06:32:39.697Z,11.43
2018-07-26T06:35:38.031Z,12.17
2018-07-26T06:38:37.074Z,11.70
2018-07-26T06:41:35.232Z,9.83
2018-07-26T06:44:33.124Z,10.60
2018-07-26T06:47:31.389Z,11.60
2018-07-26T06:50:30.277Z,10.70
2018-07-26T06:53:28.554Z,9.23
2018-07-26T06:56:26.756Z,10.00
2018-07-26T06:59:24.920Z,8.57
2018-07-26T07:02:23.042Z,9.63
2018-07-26T07:05:23.218Z,9.40
2018-07-26T07:08:21.294Z,8.73
2018-07-26T07:11:19.572Z,9.30
2018-07-26T07:14:17.896Z,8.73
2018-07-26T07:17:16.089Z,9.10
2018-07-26T07:20:18.328Z,8.33
2018-07-26T07:23:16.627Z,7.50
2018-07-26T07:26:14.958Z,8.00
2018-07-26T07:29:13.149Z,7.67
2018-07-26T07:32:11.405Z,7.10
2018-07-26T07:35:10.815Z,7.90
2018-07-26T07:38:09.691Z,6.70
2018-07-26T07:41:07.544Z,6.73
2018-07-26T07:44:05.676Z,7.00
2018-07-26T07:47:04.268Z,6.73
2018-07-26T07:50:02.424Z,6.50
2018-07-26T07:53:01.134Z,6.40
2018-07-26T07:55:59.152Z,6.60
2018-07-26T07:58:57.248Z,6.10
2018-07-26T08:01:55.487Z,6.40
2018-07-26T08:04:53.769Z,5.33
2018-07-26T08:07:51.602Z,6.13
2018-07-26T08:10:50.905Z,5.90
2018-07-26T08:20:42.908Z,5.80
2018-07-26T08:24:00.634Z,6.10
2018-07-26T08:27:14.487Z,6.23
2018-07-26T08:30:27.467Z,6.03
2018-07-26T08:33:44.792Z,6.40
2018-07-26T08:36:56.176Z,6.57
2018-07-26T08:40:09.186Z,6.57
2018-07-26T08:43:18.991Z,6.50
2018-07-26T08:46:27.594Z,6.50
2018-07-26T08:49:43.247Z,6.00
2018-07-26T08:53:07.133Z,6.97
2018-07-26T08:56:17.439Z,6.63
2018-07-26T08:59:28.861Z,6.53
2018-07-26T09:02:39.627Z,6.47
2018-07-26T09:05:49.817Z,6.77
2018-07-26T09:09:05.665Z,6.47
2018-07-26T09:12:24.942Z,6.73
2018-07-26T09:15:43.076Z,6.60
2018-07-26T09:18:54.295Z,7.47
2018-07-26T09:22:08.588Z,6.63
2018-07-26T09:25:23.876Z,6.83
2018-07-26T09:28:37.023Z,7.07
2018-07-26T09:31:49.704Z,6.40
2018-07-26T09:35:05.923Z,6.40
2018-07-26T09:38:18.133Z,7.17
2018-07-26T09:41:27.549Z,6.77
2018-07-26T09:44:45.173Z,6.10
2018-07-26T09:47:57.386Z,6.20
2018-07-26T09:51:05.772Z,5.70
2018-07-26T09:54:20.313Z,5.70
2018-07-26T09:57:28.568Z,5.20
2018-07-26T10:00:47.382Z,5.83
2018-07-26T10:04:01.627Z,6.10
2018-07-26T10:07:09.973Z,6.50
2018-07-26T10:10:30.272Z,5.60
2018-07-26T10:13:42.392Z,5.97
2018-07-26T10:20:15.435Z,6.23
2018-07-26T10:23:32.145Z,5.80
2018-07-26T10:26:49.385Z,5.93
2018-07-26T10:30:10.916Z,6.23
2018-07-26T10:33:19.083Z,5.97
2018-07-26T10:36:35.744Z,6.20
2018-07-26T10:39:45.436Z,7.13
2018-07-26T10:43:01.980Z,6.13
2018-07-26T10:46:17.033Z,6.63
2018-07-26T10:49:29.053Z,6.70
2018-07-26T10:52:45.262Z,7.00
2018-07-26T10:55:54.265Z,6.43
2018-07-26T10:59:04.116Z,6.70
2018-07-26T11:05:37.162Z,6.43
2018-07-26T11:08:52.668Z,6.57
2018-07-26T11:12:08.085Z,6.10
2018-07-26T11:21:18.547Z,6.10
2018-07-26T11:24:29.078Z,6.83
2018-07-26T11:27:38.962Z,6.80
2018-07-26T11:30:53.372Z,6.40
2018-07-26T11:34:18.647Z,6.13
2018-07-26T11:37:35.712Z,6.00
2018-07-26T11:44:10.643Z,5.67
2018-07-26T11:50:45.714Z,5.77
2018-07-26T11:54:04.292Z,5.33
2018-07-26T11:57:14.851Z,5.15
2018-07-26T12:07:09.544Z,5.35
2018-07-26T12:10:18.959Z,5.35
2018-07-26T12:13:36.230Z,16.50
2018-07-26T12:16:56.909Z,21.93
2018-07-26T12:20:14.231Z,14.18
2018-07-26T12:23:26.234Z,5.70
2018-07-26T12:26:46.435Z,19.65
2018-07-26T12:29:56.347Z,5.40
2018-07-26T12:33:09.282Z,6.03
2018-07-26T12:36:30.849Z,6.25
2018-07-26T12:39:49.970Z,6.15
2018-07-26T12:43:03.134Z,6.00
2018-07-26T12:46:12.335Z,6.15
2018-07-26T12:49:20.171Z,12.40
2018-07-26T12:52:33.951Z,6.45
2018-07-26T12:55:41.701Z,5.72
2018-07-26T12:58:51.675Z,6.08
2018-07-26T13:05:21.120Z,5.45
2018-07-26T13:08:30.659Z,5.75
2018-07-26T13:14:56.098Z,5.65
2018-07-26T13:18:10.199Z,6.17
2018-07-26T13:24:42.955Z,6.78
2018-07-26T13:27:55.752Z,6.45
2018-07-26T13:31:06.305Z,6.40
2018-07-26T13:34:18.145Z,6.00
2018-07-26T13:37:35.110Z,6.12
2018-07-26T13:40:44.393Z,6.37
2018-07-26T13:44:01.867Z,6.25
2018-07-26T13:47:16.032Z,6.45
2018-07-26T13:50:30.518Z,6.65
2018-07-26T13:53:42.301Z,6.12
2018-07-26T13:56:53.826Z,6.20
2018-07-26T14:16:49.974Z,6.87
2018-07-26T14:20:05.706Z,7.30
2018-07-26T14:23:22.754Z,7.07
2018-07-26T14:26:33.589Z,6.77
2018-07-26T14:29:44.038Z,7.03
2018-07-26T14:32:56.887Z,7.23
2018-07-26T14:36:11.134Z,7.13
2018-07-26T14:42:27.516Z,7.20
2018-07-26T14:52:25.349Z,7.77
2018-07-26T15:05:39.124Z,6.83
2018-07-26T15:15:31.993Z,7.00
2018-07-26T15:22:00.364Z,7.00
2018-07-26T15:24:59.070Z,6.67
2018-07-26T15:27:58.181Z,6.17
2018-07-26T15:30:56.338Z,6.23
2018-07-26T15:33:54.655Z,6.80
2018-07-26T15:37:07.750Z,5.72
2018-07-26T15:40:06.887Z,5.28
2018-07-26T15:43:05.656Z,4.83
2018-07-26T15:46:03.858Z,4.40
2018-07-26T15:49:01.979Z,4.67
2018-07-26T15:51:59.865Z,4.60
2018-07-26T15:54:59.027Z,4.22
2018-07-26T15:57:57.312Z,4.15
2018-07-26T16:00:55.674Z,3.70
2018-07-26T16:03:54.065Z,4.50
2018-07-26T16:06:52.410Z,3.58
2018-07-26T16:09:50.897Z,4.60
2018-07-26T16:12:48.917Z,5.15
2018-07-26T16:15:47.023Z,4.25
2018-07-26T16:18:45.154Z,4.72
2018-07-26T16:21:50.577Z,4.37
2018-07-26T16:24:48.849Z,4.53
2018-07-26T16:27:48.392Z,4.62
2018-07-26T16:30:46.777Z,4.67
2018-07-26T16:33:45.205Z,4.72
2018-07-26T16:36:43.426Z,4.00
2018-07-26T16:39:41.330Z,3.70
2018-07-26T16:42:39.647Z,3.77
2018-07-26T16:45:37.743Z,3.87
2018-07-26T16:48:35.688Z,3.75
2018-07-26T16:51:35.900Z,3.75
2018-07-26T16:54:34.018Z,4.75
2018-07-26T16:57:32.007Z,5.80
2018-07-26T17:00:31.212Z,6.00
2018-07-26T17:03:29.193Z,5.17
2018-07-26T17:06:29.319Z,5.65
2018-07-26T17:09:32.529Z,5.25
2018-07-26T17:12:30.711Z,5.30
2018-07-26T17:15:30.756Z,5.70
2018-07-26T17:18:29.489Z,3.87
2018-07-26T17:21:27.641Z,4.23
2018-07-26T17:24:25.849Z,3.57
2018-07-26T17:27:24.570Z,4.07
2018-07-26T17:30:23.449Z,3.80
2018-07-26T17:33:21.746Z,4.07
2018-07-26T17:36:20.196Z,4.10
2018-07-26T17:39:20.315Z,4.03
2018-07-26T17:42:20.297Z,4.37
2018-07-26T17:45:20.715Z,4.80
2018-07-26T17:48:18.959Z,6.23
2018-07-26T17:51:17.249Z,4.73
2018-07-26T17:54:15.023Z,4.80
2018-07-26T17:57:13.546Z,5.20
2018-07-26T18:00:11.612Z,5.20
2018-07-26T18:03:09.818Z,5.10
2018-07-26T18:06:08.161Z,5.10
2018-07-26T18:09:06.249Z,5.70
2018-07-26T18:12:04.605Z,5.57
2018-07-26T18:15:03.973Z,5.30
2018-07-26T18:18:02.309Z,5.43
2018-07-26T18:21:00.637Z,4.93
2018-07-26T18:23:58.980Z,5.87
2018-07-26T18:26:57.370Z,5.30
2018-07-26T19:00:22.835Z,7.80
2018-07-26T19:03:33.929Z,6.77
2018-07-26T19:06:50.393Z,6.63
2018-07-26T19:10:06.295Z,6.70
2018-07-26T19:13:21.206Z,6.47
2018-07-26T19:16:38.774Z,6.07
2018-07-26T19:19:52.655Z,6.67
2018-07-26T19:23:05.781Z,6.20
2018-07-26T19:26:24.415Z,6.90
2018-07-26T19:33:03.609Z,6.53
2018-07-26T19:39:40.894Z,7.07
2018-07-26T19:42:57.554Z,6.90
2018-07-26T19:46:12.991Z,7.27
2018-07-26T19:49:25.033Z,6.97
2018-07-26T19:52:37.284Z,7.03
2018-07-26T19:55:48.387Z,6.87
2018-07-26T19:59:02.246Z,7.60
2018-07-26T20:02:19.986Z,8.17
2018-07-26T20:05:32.075Z,9.43
2018-07-26T20:08:49.243Z,10.40
2018-07-26T20:12:06.216Z,9.40
2018-07-26T20:15:27.565Z,10.67
2018-07-26T20:18:41.627Z,10.67
2018-07-26T20:21:58.725Z,10.90
2018-07-26T20:25:14.406Z,9.70
2018-07-26T20:28:28.414Z,10.87
2018-07-26T20:31:40.714Z,11.23
2018-07-26T20:34:52.571Z,11.47
2018-07-26T20:38:07.904Z,10.40
2018-07-26T20:41:19.957Z,10.05
2018-07-26T20:44:30.444Z,10.83
2018-07-26T20:47:52.456Z,10.90
2018-07-26T20:51:06.193Z,9.67
2018-07-26T20:54:21.064Z,9.90
2018-07-26T20:57:37.721Z,10.00
2018-07-26T21:00:49.592Z,9.20
2018-07-26T21:04:10.370Z,9.93
2018-07-26T21:07:27.124Z,10.23
2018-07-26T21:10:38.065Z,9.90
2018-07-26T21:13:50.408Z,9.60
2018-07-26T21:17:01.597Z,10.57
2018-07-26T21:20:18.855Z,11.10
2018-07-26T21:23:32.713Z,10.20
2018-07-26T21:26:49.066Z,11.30
2018-07-26T21:30:03.441Z,11.00
2018-07-26T21:33:22.600Z,11.63
2018-07-26T21:36:35.089Z,10.93
2018-07-26T21:39:51.991Z,11.43
2018-07-26T21:43:05.098Z,10.90
2018-07-26T21:46:20.478Z,10.97
2018-07-26T21:52:56.488Z,11.80
2018-07-26T21:56:09.764Z,11.67
2018-07-26T21:59:24.897Z,11.50
2018-07-26T22:02:39.718Z,11.87
2018-07-26T22:06:04.067Z,12.23
2018-07-26T22:09:17.751Z,12.07
2018-07-26T22:12:28.515Z,11.87
2018-07-26T22:15:51.582Z,12.40
2018-07-26T22:19:08.125Z,12.63
2018-07-26T22:22:21.585Z,11.87
2018-07-26T22:25:35.999Z,11.97
2018-07-26T22:28:49.901Z,12.60
2018-07-26T22:32:04.164Z,13.77
2018-07-26T22:35:17.039Z,13.23
2018-07-26T22:38:34.751Z,13.73
2018-07-26T22:41:46.532Z,12.63
2018-07-26T22:45:01.285Z,13.13
2018-07-26T22:48:14.406Z,13.43
2018-07-26T22:51:30.342Z,12.43
2018-07-26T22:54:45.577Z,12.53
2018-07-26T22:57:54.012Z,12.70
2018-07-26T23:01:04.936Z,13.40
2018-07-26T23:04:17.195Z,12.93
2018-07-26T23:07:33.411Z,13.63
2018-07-26T23:10:45.796Z,13.50
2018-07-26T23:14:05.629Z,12.60
2018-07-26T23:17:14.857Z,12.43
2018-07-26T23:20:37.035Z,13.43
2018-07-26T23:23:53.579Z,14.40
2018-07-26T23:27:05.229Z,14.87
2018-07-26T23:30:16.042Z,14.63
2018-07-26T23:33:29.119Z,14.63
2018-07-26T23:36:47.899Z,13.80
2018-07-26T23:43:20.513Z,14.27
2018-07-26T23:46:37.143Z,13.23
2018-07-26T23:49:54.562Z,14.67
2018-07-26T23:53:12.674Z,15.90
2018-07-26T23:56:21.174Z,13.53
2018-07-26T23:59:35.011Z,14.60
